createdAt,value
2018-05-08T00:00:38.710Z,61.98
2018-05-08T00:03:06.096Z,61.02
2018-05-08T00:05:33.493Z,61.73
2018-05-08T00:08:00.896Z,62.37
2018-05-08T00:10:28.268Z,63.04
2018-05-08T00:12:55.685Z,64.33
2018-05-08T00:15:23.688Z,63.40
2018-05-08T00:17:51.084Z,64.56
2018-05-08T00:20:18.467Z,65.27
2018-05-08T00:22:45.855Z,66.59
2018-05-08T00:25:13.235Z,66.28
2018-05-08T00:27:40.644Z,67.14
2018-05-08T00:30:08.025Z,66.99
2018-05-08T00:32:35.432Z,67.11
2018-05-08T00:35:03.253Z,68.10
2018-05-08T00:37:30.651Z,68.29
2018-05-08T00:39:58.044Z,67.94
2018-05-08T00:42:25.455Z,68.28
2018-05-08T00:44:52.851Z,68.74
2018-05-08T00:47:20.264Z,68.21
2018-05-08T00:49:47.652Z,67.72
2018-05-08T00:52:15.042Z,67.57
2018-05-08T00:54:54.232Z,68.07
2018-05-08T00:57:21.616Z,68.61
2018-05-08T00:59:49.414Z,69.39
2018-05-08T01:02:16.805Z,68.81
2018-05-08T01:04:44.758Z,69.08
2018-05-08T01:07:12.145Z,69.73
2018-05-08T01:09:39.536Z,70.09
2018-05-08T01:12:06.921Z,70.06
2018-05-08T01:14:34.332Z,70.92
2018-05-08T01:17:01.787Z,69.79
2018-05-08T01:19:29.117Z,69.62
2018-05-08T01:21:56.496Z,69.97
2018-05-08T01:24:23.904Z,70.25
2018-05-08T01:26:51.305Z,71.54
2018-05-08T01:29:18.726Z,70.20
2018-05-08T01:31:46.134Z,68.74
2018-05-08T01:34:14.858Z,70.12
2018-05-08T01:36:42.247Z,71.56
2018-05-08T01:39:09.646Z,72.89
2018-05-08T01:41:37.047Z,72.52
2018-05-08T01:44:04.436Z,72.47
2018-05-08T01:46:31.841Z,72.34
2018-05-08T01:48:59.291Z,73.13
2018-05-08T01:51:26.744Z,74.08
2018-05-08T01:53:54.145Z,74.50
2018-05-08T01:56:21.535Z,74.42
2018-05-08T01:58:48.940Z,74.38
2018-05-08T02:01:16.316Z,72.65
2018-05-08T02:03:43.701Z,73.39
2018-05-08T02:06:11.090Z,73.02
2018-05-08T02:08:38.485Z,73.06
2018-05-08T02:11:05.868Z,74.18
2018-05-08T02:13:33.275Z,73.91
2018-05-08T02:16:00.664Z,73.87
2018-05-08T02:18:28.065Z,73.99
2018-05-08T02:20:55.871Z,74.85
2018-05-08T02:23:23.304Z,74.61
2018-05-08T02:25:51.488Z,75.28
2018-05-08T02:28:18.895Z,74.38
2018-05-08T02:30:46.288Z,74.50
2018-05-08T02:33:13.696Z,74.73
2018-05-08T02:35:41.099Z,72.98
2018-05-08T02:38:08.505Z,73.36
2018-05-08T02:40:36.590Z,72.93
2018-05-08T02:43:03.977Z,74.36
2018-05-08T02:45:31.372Z,73.63
2018-05-08T02:47:58.760Z,72.62
2018-05-08T02:50:26.822Z,72.87
2018-05-08T02:52:54.206Z,73.08
2018-05-08T02:55:22.300Z,72.59
2018-05-08T02:57:49.840Z,72.11
2018-05-08T03:00:17.237Z,71.90
2018-05-08T03:02:44.608Z,72.92
2018-05-08T03:05:12.013Z,74.14
2018-05-08T03:07:39.384Z,74.76
2018-05-08T03:10:06.788Z,75.31
2018-05-08T03:12:34.192Z,76.02
2018-05-08T03:15:01.594Z,76.61
2018-05-08T03:17:29.760Z,76.64
2018-05-08T03:19:57.525Z,76.41
2018-05-08T03:22:24.994Z,77.38
2018-05-08T03:24:52.332Z,76.95
2018-05-08T03:27:19.727Z,77.17
2018-05-08T03:29:47.112Z,76.96
2018-05-08T03:32:14.487Z,77.52
2018-05-08T03:34:41.880Z,78.24
2018-05-08T03:37:10.143Z,77.84
2018-05-08T03:39:37.524Z,77.47
2018-05-08T03:42:04.932Z,77.71
2018-05-08T03:44:32.307Z,77.40
2018-05-08T03:46:59.697Z,77.10
2018-05-08T03:49:27.080Z,77.49
2018-05-08T03:51:54.456Z,77.77
2018-05-08T03:54:21.847Z,78.06
2018-05-08T03:56:49.237Z,77.85
2018-05-08T03:59:16.627Z,77.75
2018-05-08T04:01:55.704Z,77.51
2018-05-08T04:04:34.775Z,77.06
2018-05-08T04:07:13.853Z,77.13
2018-05-08T04:09:41.903Z,77.43
2018-05-08T04:12:09.288Z,78.30
2018-05-08T04:14:36.677Z,76.85
2018-05-08T04:17:04.662Z,77.12
2018-05-08T04:19:32.115Z,77.12
2018-05-08T04:21:59.485Z,77.27
2018-05-08T04:24:27.729Z,76.97
2018-05-08T04:26:55.108Z,76.65
2018-05-08T04:29:22.502Z,76.26
2018-05-08T04:31:49.896Z,76.37
2018-05-08T04:34:17.272Z,76.35
2018-05-08T04:36:44.846Z,76.23
2018-05-08T04:39:12.216Z,74.89
2018-05-08T04:41:39.627Z,73.50
2018-05-08T04:44:06.998Z,71.65
2018-05-08T04:46:34.403Z,72.00
2018-05-08T04:49:02.628Z,69.10
2018-05-08T04:51:30.020Z,69.00
2018-05-08T04:53:57.408Z,67.62
2018-05-08T04:56:24.801Z,67.76
2018-05-08T04:58:52.189Z,67.93
2018-05-08T05:01:19.584Z,67.22
2018-05-08T05:03:46.978Z,67.83
2018-05-08T05:06:14.347Z,68.01
2018-05-08T05:08:42.081Z,68.32
2018-05-08T05:11:09.862Z,68.57
2018-05-08T05:13:37.248Z,67.95
2018-05-08T05:16:04.640Z,66.42
2018-05-08T05:18:32.021Z,65.29
2018-05-08T05:20:59.424Z,62.07
2018-05-08T05:23:26.808Z,60.17
2018-05-08T05:25:54.209Z,63.30
2018-05-08T05:28:21.589Z,63.54
2018-05-08T05:30:49.004Z,62.99
2018-05-08T05:33:16.385Z,63.98
2018-05-08T05:35:43.788Z,64.44
2018-05-08T05:38:11.169Z,64.37
2018-05-08T05:40:38.570Z,56.23
2018-05-08T05:43:05.947Z,50.11
2018-05-08T05:45:33.345Z,43.73
2018-05-08T05:48:00.733Z,40.82
2018-05-08T05:50:28.128Z,37.56
2018-05-08T05:52:55.515Z,33.14
2018-05-08T05:55:23.327Z,31.19
2018-05-08T05:57:50.727Z,31.65
2018-05-08T06:00:19.516Z,30.41
2018-05-08T06:02:46.917Z,32.44
2018-05-08T06:05:15.589Z,33.70
2018-05-08T06:07:42.977Z,39.43
2018-05-08T06:10:10.368Z,39.19
2018-05-08T06:12:37.765Z,40.65
2018-05-08T06:15:05.165Z,41.85
2018-05-08T06:17:32.563Z,39.31
2018-05-08T06:19:59.947Z,39.28
2018-05-08T06:22:27.348Z,41.47
2018-05-08T06:24:54.732Z,44.55
2018-05-08T06:27:22.128Z,48.05
2018-05-08T06:29:49.517Z,51.48
2018-05-08T06:32:17.130Z,52.66
2018-05-08T06:34:44.519Z,52.81
2018-05-08T06:37:11.929Z,51.22
2018-05-08T06:39:39.316Z,51.36
2018-05-08T06:42:06.707Z,51.92
2018-05-08T06:44:34.100Z,51.03
2018-05-08T06:47:01.493Z,50.51
2018-05-08T06:49:28.874Z,50.25
2018-05-08T06:51:56.272Z,49.26
2018-05-08T06:54:23.664Z,49.76
2018-05-08T06:56:51.055Z,50.42
2018-05-08T06:59:18.451Z,49.18
2018-05-08T07:01:45.860Z,47.70
2018-05-08T07:04:13.235Z,47.08
2018-05-08T07:06:40.647Z,47.55
2018-05-08T07:09:08.132Z,48.81
2018-05-08T07:11:35.429Z,48.58
2018-05-08T07:14:02.807Z,47.82
2018-05-08T07:16:30.203Z,48.38
2018-05-08T07:18:57.585Z,48.62
2018-05-08T07:21:25.010Z,49.00
2018-05-08T07:23:52.426Z,48.05
2018-05-08T07:26:19.797Z,45.80
2018-05-08T07:28:47.180Z,45.22
2018-05-08T07:31:14.560Z,46.33
2018-05-08T07:33:41.967Z,44.37
2018-05-08T07:36:10.184Z,44.29
2018-05-08T07:38:38.388Z,44.56
2018-05-08T07:41:05.764Z,43.77
2018-05-08T22:02:38.283Z,54.84
2018-05-08T22:05:05.669Z,54.55
2018-05-08T22:07:33.071Z,55.99
2018-05-08T22:10:00.444Z,55.11
2018-05-08T22:12:27.836Z,54.90
2018-05-08T22:14:55.221Z,56.15
2018-05-08T22:17:23.020Z,55.59
2018-05-08T22:19:50.412Z,55.52
2018-05-08T22:22:17.803Z,55.93
2018-05-08T22:24:45.196Z,56.58
2018-05-08T22:27:12.939Z,56.98
2018-05-08T22:29:40.334Z,58.13
2018-05-08T22:32:07.728Z,57.67
2018-05-08T22:34:35.114Z,56.97
2018-05-08T22:37:02.515Z,58.14
2018-05-08T22:39:29.892Z,57.62
2018-05-08T22:41:57.305Z,58.97
2018-05-08T22:44:24.689Z,56.46
2018-05-08T22:46:52.080Z,56.38
2018-05-08T22:49:19.485Z,56.58
2018-05-08T22:51:46.878Z,57.02
2018-05-08T22:54:15.253Z,55.94
2018-05-08T22:56:42.645Z,54.82
2018-05-08T22:59:10.055Z,58.13
2018-05-08T23:01:37.435Z,57.34
2018-05-08T23:04:04.835Z,59.22
2018-05-08T23:06:32.220Z,58.30
2018-05-08T23:08:59.613Z,57.41
2018-05-08T23:11:26.995Z,58.44
2018-05-08T23:13:54.390Z,57.42
2018-05-08T23:16:21.771Z,57.55
2018-05-08T23:18:49.165Z,58.64
2018-05-08T23:21:16.568Z,59.61
2018-05-08T23:23:43.966Z,59.26
2018-05-08T23:26:11.364Z,58.97
2018-05-08T23:28:38.750Z,58.52
2018-05-08T23:31:06.569Z,59.34
2018-05-08T23:33:33.949Z,59.52
2018-05-08T23:36:01.324Z,58.83
2018-05-08T23:38:28.726Z,58.88
2018-05-08T23:40:56.112Z,58.33
2018-05-08T23:43:23.492Z,57.89
2018-05-08T23:45:50.895Z,58.11
2018-05-08T23:48:18.298Z,61.17
2018-05-08T23:50:45.692Z,57.18
2018-05-08T23:53:13.079Z,57.22
2018-05-08T23:55:40.476Z,57.80
2018-05-08T23:58:07.879Z,58.38
